createdAt,value
2023-04-28T00:01:30.049Z,11.30
2023-04-28T00:03:58.011Z,2.88
2023-04-28T00:06:24.878Z,2.17
2023-04-28T00:08:51.392Z,2.65
2023-04-28T00:11:18.021Z,2.47
2023-04-28T00:13:44.516Z,3.65
2023-04-28T00:16:11.068Z,2.22
2023-04-28T00:18:37.655Z,2.85
2023-04-28T00:21:04.593Z,2.80
2023-04-28T00:23:31.171Z,4.55
2023-04-28T00:25:58.016Z,2.80
2023-04-28T00:30:53.970Z,2.63
2023-04-28T00:33:20.520Z,3.58
2023-04-28T00:35:47.018Z,2.10
2023-04-28T00:38:13.521Z,3.65
2023-04-28T00:40:40.160Z,2.78
2023-04-28T00:43:06.964Z,2.92
2023-04-28T00:45:33.759Z,2.65
2023-04-28T00:48:00.916Z,2.83
2023-04-28T00:50:27.978Z,2.60
2023-04-28T00:52:54.941Z,5.22
2023-04-28T00:55:22.230Z,2.83
2023-04-28T00:57:48.781Z,2.53
2023-04-28T01:00:15.644Z,2.60
2023-04-28T01:02:42.439Z,4.22
2023-04-28T01:05:09.783Z,2.22
2023-04-28T01:07:37.191Z,4.18
2023-04-28T01:10:03.970Z,11.13
2023-04-28T01:12:30.872Z,2.58
2023-04-28T01:14:57.766Z,2.75
2023-04-28T01:17:24.457Z,3.08
2023-04-28T01:19:52.937Z,3.55
2023-04-28T01:22:19.492Z,2.42
2023-04-28T01:24:46.054Z,1.95
2023-04-28T01:27:12.583Z,3.08
2023-04-28T01:29:39.090Z,2.08
2023-04-28T01:32:05.722Z,4.28
2023-04-28T01:34:32.273Z,3.30
2023-04-28T01:37:01.791Z,2.80
2023-04-28T01:39:28.386Z,4.78
2023-04-28T01:41:54.939Z,2.80
2023-04-28T01:44:21.465Z,2.88
2023-04-28T01:46:48.027Z,3.00
2023-04-28T01:49:14.582Z,2.67
2023-04-28T01:51:42.757Z,2.72
2023-04-28T01:54:09.788Z,2.92
2023-04-28T01:56:36.616Z,3.38
2023-04-28T01:59:03.130Z,4.50
2023-04-28T02:01:29.724Z,4.32
2023-04-28T02:03:56.515Z,4.40
2023-04-28T02:06:23.262Z,2.45
2023-04-28T02:08:49.799Z,2.88
2023-04-28T02:11:16.391Z,3.25
2023-04-28T02:13:42.964Z,13.70
2023-04-28T02:16:09.606Z,4.22
2023-04-28T02:18:36.346Z,2.42
2023-04-28T02:21:11.085Z,2.45
2023-04-28T02:23:37.814Z,2.40
2023-04-28T02:26:04.440Z,2.92
2023-04-28T02:28:31.211Z,5.07
2023-04-28T02:31:11.423Z,3.78
2023-04-28T02:33:38.429Z,5.28
2023-04-28T02:36:06.084Z,3.33
2023-04-28T02:38:32.800Z,2.78
2023-04-28T02:41:00.213Z,3.67
2023-04-28T02:43:27.499Z,2.47
2023-04-28T02:45:54.856Z,7.15
2023-04-28T02:48:21.466Z,2.90
2023-04-28T02:50:48.047Z,2.83
2023-04-28T02:53:14.786Z,3.00
2023-04-28T02:55:41.414Z,2.70
2023-04-28T02:58:07.961Z,2.42
2023-04-28T03:00:34.538Z,3.60
2023-04-28T03:03:02.016Z,4.82
2023-04-28T03:05:28.828Z,6.75
2023-04-28T03:07:55.445Z,4.38
2023-04-28T03:10:22.080Z,5.65
2023-04-28T03:12:48.673Z,5.55
2023-04-28T03:15:15.465Z,3.90
2023-04-28T03:17:53.835Z,3.42
2023-04-28T03:20:20.414Z,2.40
2023-04-28T03:22:47.046Z,2.10
2023-04-28T03:25:13.572Z,6.75
2023-04-28T03:27:40.137Z,4.30
2023-04-28T03:30:07.211Z,2.40
2023-04-28T03:32:33.723Z,4.40
2023-04-28T03:35:00.306Z,2.17
2023-04-28T03:37:27.226Z,3.38
2023-04-28T03:39:53.794Z,3.10
2023-04-28T03:42:20.296Z,3.22
2023-04-28T03:44:46.793Z,2.72
2023-04-28T03:47:13.434Z,4.88
2023-04-28T03:49:39.989Z,3.22
2023-04-28T03:52:06.677Z,6.50
2023-04-28T03:54:33.276Z,3.50
2023-04-28T03:57:00.759Z,3.95
2023-04-28T03:59:33.167Z,3.17
2023-04-28T04:01:59.792Z,5.47
2023-04-28T04:04:26.687Z,4.50
2023-04-28T04:06:53.825Z,4.78
2023-04-28T04:09:20.422Z,4.18
2023-04-28T04:11:46.964Z,3.08
2023-04-28T04:14:13.658Z,2.28
2023-04-28T04:16:41.182Z,2.92
2023-04-28T04:19:07.871Z,2.50
2023-04-28T04:21:34.431Z,2.40
2023-04-28T04:24:01.390Z,5.18
2023-04-28T04:26:27.964Z,1.60
2023-04-28T04:28:54.583Z,2.22
2023-04-28T04:31:22.526Z,2.03
2023-04-28T04:33:49.309Z,3.28
2023-04-28T04:36:15.848Z,3.97
2023-04-28T04:38:42.421Z,2.75
2023-04-28T04:41:09.038Z,1.98
2023-04-28T04:43:35.745Z,2.00
2023-04-28T04:46:03.995Z,2.80
2023-04-28T04:48:30.713Z,4.80
2023-04-28T04:50:57.275Z,2.67
2023-04-28T04:53:23.927Z,5.30
2023-04-28T04:55:50.479Z,3.20
2023-04-28T04:58:17.946Z,2.92
2023-04-28T05:00:44.526Z,2.63
2023-04-28T05:03:11.772Z,6.25
2023-04-28T05:05:41.557Z,2.70
2023-04-28T05:08:08.125Z,5.30
2023-04-28T05:10:34.664Z,4.95
2023-04-28T05:13:01.218Z,3.50
2023-04-28T05:15:27.754Z,3.15
2023-04-28T05:17:54.557Z,3.45
2023-04-28T05:20:21.157Z,2.92
2023-04-28T05:22:47.738Z,1.98
2023-04-28T05:25:14.314Z,2.63
2023-04-28T05:27:41.172Z,4.10
2023-04-28T05:30:09.111Z,2.58
2023-04-28T05:32:36.731Z,4.38
2023-04-28T05:35:03.741Z,7.10
2023-04-28T05:37:30.300Z,6.35
2023-04-28T05:39:56.806Z,2.70
2023-04-28T05:42:23.407Z,2.42
2023-04-28T05:44:49.939Z,3.33
2023-04-28T05:47:16.469Z,2.80
2023-04-28T05:49:43.041Z,2.05
2023-04-28T05:52:09.579Z,1.88
2023-04-28T05:54:36.258Z,4.00
2023-04-28T05:57:02.884Z,2.08
2023-04-28T05:59:30.658Z,1.95
2023-04-28T06:01:57.310Z,2.20
2023-04-28T06:04:25.519Z,10.07
2023-04-28T06:06:52.646Z,3.75
2023-04-28T06:09:19.308Z,5.28
2023-04-28T06:11:45.945Z,1.95
2023-04-28T06:14:12.498Z,2.35
2023-04-28T06:16:38.993Z,3.13
2023-04-28T06:19:05.976Z,1.77
2023-04-28T06:21:33.641Z,2.67
2023-04-28T06:24:01.926Z,2.67
2023-04-28T06:26:29.044Z,1.77
2023-04-28T06:28:56.637Z,6.60
2023-04-28T06:31:23.287Z,2.25
2023-04-28T06:33:50.044Z,1.63
2023-04-28T06:36:18.093Z,1.85
2023-04-28T06:38:45.865Z,2.67
2023-04-28T06:41:12.619Z,3.13
2023-04-28T06:43:39.237Z,2.38
2023-04-28T06:46:05.971Z,1.33
2023-04-28T06:48:32.711Z,1.98
2023-04-28T06:50:59.256Z,2.00
2023-04-28T06:53:25.765Z,3.33
2023-04-28T06:55:52.875Z,1.73
2023-04-28T06:58:20.768Z,5.38
2023-04-28T07:00:47.355Z,2.15
2023-04-28T07:03:14.025Z,2.03
2023-04-28T07:05:40.659Z,1.52
2023-04-28T07:08:07.186Z,2.25
2023-04-28T07:10:33.749Z,2.22
2023-04-28T07:13:00.355Z,2.05
2023-04-28T07:15:27.956Z,2.25
2023-04-28T07:17:54.614Z,1.88
2023-04-28T07:20:22.469Z,2.47
2023-04-28T07:22:49.014Z,2.03
2023-04-28T07:25:15.658Z,3.08
2023-04-28T07:27:42.425Z,2.70
2023-04-28T07:30:25.113Z,2.03
2023-04-28T07:32:53.221Z,2.65
2023-04-28T07:35:19.782Z,1.25
2023-04-28T07:37:46.346Z,1.77
2023-04-28T07:40:13.024Z,1.95
2023-04-28T07:42:39.598Z,5.25
2023-04-28T07:45:06.771Z,1.88
2023-04-28T07:47:33.727Z,2.03
2023-04-28T07:50:03.467Z,1.48
2023-04-28T07:52:30.056Z,2.22
2023-04-28T07:54:56.610Z,3.25
2023-04-28T07:57:23.248Z,2.58
2023-04-28T07:59:49.804Z,7.10
2023-04-28T08:02:16.662Z,1.58
2023-04-28T08:04:43.463Z,2.25
2023-04-28T08:07:10.220Z,2.50
2023-04-28T08:09:36.832Z,2.38
2023-04-28T08:12:03.617Z,1.90
2023-04-28T08:14:30.149Z,1.20
2023-04-28T08:16:57.217Z,2.28
2023-04-28T08:19:24.221Z,2.28
2023-04-28T08:21:51.053Z,4.57
2023-04-28T08:24:18.014Z,2.38
2023-04-28T08:26:44.788Z,1.15
2023-04-28T08:29:11.298Z,2.15
2023-04-28T08:31:37.990Z,1.00
2023-04-28T08:34:04.532Z,1.92
2023-04-28T08:36:33.135Z,6.65
2023-04-28T08:39:01.899Z,3.78
2023-04-28T08:41:32.242Z,2.65
2023-04-28T08:43:58.825Z,3.35
2023-04-28T08:46:27.985Z,2.72
2023-04-28T08:49:00.324Z,2.47
2023-04-28T08:51:34.521Z,1.30
2023-04-28T08:54:22.880Z,2.05
2023-04-28T08:56:52.142Z,2.30
2023-04-28T08:59:19.395Z,1.80
2023-04-28T09:01:48.743Z,1.30
2023-04-28T09:04:17.568Z,1.67
2023-04-28T09:06:46.130Z,1.48
2023-04-28T09:09:27.473Z,3.40
2023-04-28T09:11:55.697Z,3.72
2023-04-28T09:14:23.667Z,1.58
2023-04-28T09:16:52.034Z,1.25
2023-04-28T09:19:19.162Z,2.28
2023-04-28T09:21:54.140Z,2.30
2023-04-28T09:24:40.562Z,1.77
2023-04-28T09:29:52.950Z,1.38
2023-04-28T09:32:24.017Z,2.00
2023-04-28T09:34:57.058Z,3.17
2023-04-28T09:37:25.717Z,2.03
2023-04-28T09:39:54.527Z,2.65
2023-04-28T09:42:37.832Z,1.98
2023-04-28T09:45:09.012Z,2.83
2023-04-28T09:47:49.735Z,3.08
2023-04-28T09:50:18.276Z,3.85
2023-04-28T09:52:56.929Z,2.78
2023-04-28T09:55:24.445Z,4.80
2023-04-28T09:57:54.661Z,1.70
2023-04-28T10:00:22.691Z,1.40
2023-04-28T10:02:50.534Z,5.68
2023-04-28T10:05:17.746Z,7.97
2023-04-28T10:07:45.170Z,6.18
2023-04-28T10:10:14.613Z,2.10
2023-04-28T10:12:41.948Z,3.83
2023-04-28T10:15:10.308Z,1.95
2023-04-28T10:17:37.195Z,5.47
2023-04-28T10:20:05.369Z,1.65
2023-04-28T10:23:02.775Z,1.92
2023-04-28T10:25:37.072Z,2.15
2023-04-28T10:28:08.582Z,1.88
2023-04-28T10:30:35.939Z,1.70
2023-04-28T10:33:14.942Z,3.83
2023-04-28T10:35:48.059Z,1.98
2023-04-28T10:38:24.245Z,2.20
2023-04-28T10:40:54.318Z,2.15
2023-04-28T10:43:33.092Z,2.75
2023-04-28T10:46:01.907Z,1.60
2023-04-28T10:48:35.089Z,3.80
2023-04-28T10:51:04.478Z,2.85
2023-04-28T10:53:43.524Z,1.70
2023-04-28T10:56:15.442Z,4.22
2023-04-28T10:58:43.801Z,2.25
2023-04-28T11:01:22.740Z,1.83
2023-04-28T11:04:08.413Z,3.22
2023-04-28T11:06:45.895Z,2.30
2023-04-28T11:09:12.438Z,3.47
2023-04-28T11:11:40.352Z,1.52
2023-04-28T11:14:19.008Z,12.40
2023-04-28T11:16:56.388Z,6.65
2023-04-28T11:19:25.016Z,7.22
2023-04-28T11:21:53.070Z,1.95
2023-04-28T11:24:20.003Z,1.90
2023-04-28T11:26:46.879Z,1.05
2023-04-28T11:29:15.008Z,4.32
2023-04-28T11:31:50.134Z,1.48
2023-04-28T11:34:20.644Z,3.08
2023-04-28T11:36:47.714Z,1.38
2023-04-28T11:39:15.351Z,1.50
2023-04-28T11:41:45.442Z,3.75
2023-04-28T11:44:17.105Z,1.85
2023-04-28T11:46:57.417Z,1.80
2023-04-28T11:49:29.213Z,4.85
2023-04-28T11:52:04.015Z,1.02
2023-04-28T11:54:30.856Z,2.00
2023-04-28T11:56:59.025Z,1.63
2023-04-28T11:59:31.109Z,0.95
2023-04-28T12:01:59.633Z,1.92
2023-04-28T12:04:39.412Z,2.00
2023-04-28T12:07:17.315Z,3.42
2023-04-28T12:09:46.523Z,3.03
2023-04-28T12:12:45.176Z,3.22
2023-04-28T12:15:17.980Z,2.42
2023-04-28T12:17:46.169Z,1.70
2023-04-28T12:20:36.690Z,1.92
2023-04-28T12:23:03.401Z,1.67
2023-04-28T12:25:30.044Z,2.08
2023-04-28T12:28:04.550Z,1.00
2023-04-28T12:30:38.687Z,1.63
2023-04-28T12:33:29.055Z,2.17
2023-04-28T12:35:59.052Z,2.58
2023-04-28T12:38:26.509Z,1.45
2023-04-28T12:40:53.298Z,2.17
2023-04-28T12:43:21.188Z,1.70
2023-04-28T12:45:47.860Z,3.47
2023-04-28T12:48:14.658Z,4.45
2023-04-28T12:50:41.314Z,1.15
2023-04-28T12:53:07.866Z,2.00
2023-04-28T12:55:34.512Z,1.63
2023-04-28T12:58:01.058Z,1.70
2023-04-28T13:00:27.636Z,1.63
2023-04-28T13:02:54.557Z,1.58
2023-04-28T13:05:21.270Z,3.10
2023-04-28T13:07:49.405Z,6.47
2023-04-28T13:10:16.420Z,1.42
2023-04-28T13:12:42.981Z,1.13
2023-04-28T13:15:10.156Z,3.10
2023-04-28T13:17:36.730Z,1.17
2023-04-28T13:20:05.267Z,1.35
2023-04-28T13:22:31.984Z,2.08
2023-04-28T13:24:58.545Z,2.47
2023-04-28T13:27:25.135Z,0.93
2023-04-28T13:29:51.811Z,1.90
2023-04-28T13:32:18.548Z,1.98
2023-04-28T13:34:45.384Z,8.40
2023-04-28T13:37:12.125Z,1.63
2023-04-28T13:39:38.722Z,2.00
2023-04-28T13:42:06.638Z,2.58
2023-04-28T13:44:33.225Z,1.10
2023-04-28T13:47:00.024Z,0.47
2023-04-28T13:49:26.582Z,0.95
2023-04-28T13:51:53.104Z,2.78
2023-04-28T13:54:19.688Z,5.22
2023-04-28T13:56:46.744Z,1.95
2023-04-28T13:59:13.454Z,2.45
2023-04-28T14:01:40.175Z,1.80
2023-04-28T14:04:10.100Z,1.90
2023-04-28T14:06:37.278Z,1.05
2023-04-28T14:09:04.200Z,1.45
2023-04-28T14:11:30.816Z,1.13
2023-04-28T14:13:57.377Z,2.45
2023-04-28T14:16:24.160Z,0.88
2023-04-28T14:18:50.760Z,1.38
2023-04-28T14:21:17.267Z,1.55
2023-04-28T14:23:43.856Z,1.15
2023-04-28T14:26:10.517Z,1.48
2023-04-28T14:28:37.737Z,0.95
2023-04-28T14:31:08.910Z,3.50
2023-04-28T14:33:35.826Z,1.13
2023-04-28T14:36:02.697Z,1.17
2023-04-28T14:38:30.721Z,1.65
2023-04-28T14:40:57.673Z,4.38
2023-04-28T14:43:24.883Z,0.73
2023-04-28T14:45:51.975Z,1.60
2023-04-28T14:48:18.678Z,2.22
2023-04-28T14:50:46.173Z,2.05
2023-04-28T14:53:12.850Z,3.40
2023-04-28T14:55:39.442Z,0.85
2023-04-28T14:58:05.942Z,4.00
2023-04-28T15:00:32.613Z,2.53
2023-04-28T15:02:59.398Z,4.88
2023-04-28T15:05:26.114Z,1.67
2023-04-28T15:07:52.746Z,3.42
2023-04-28T15:10:19.347Z,1.35
2023-04-28T15:12:47.233Z,1.90
2023-04-28T15:15:14.355Z,5.68
2023-04-28T15:17:40.953Z,1.95
2023-04-28T15:20:08.194Z,2.88
2023-04-28T15:22:36.424Z,1.23
2023-04-28T15:25:03.373Z,2.38
2023-04-28T15:27:29.900Z,5.97
2023-04-28T15:29:56.473Z,2.30
2023-04-28T15:32:23.259Z,1.65
2023-04-28T15:34:50.149Z,3.28
2023-04-28T15:37:38.998Z,1.17
2023-04-28T15:40:06.119Z,1.30
2023-04-28T15:42:32.911Z,2.58
2023-04-28T15:44:59.923Z,2.67
2023-04-28T15:47:26.442Z,2.85
2023-04-28T15:49:52.933Z,2.03
2023-04-28T15:52:19.614Z,1.00
2023-04-28T15:54:46.518Z,6.47
2023-04-28T15:57:13.075Z,2.40
2023-04-28T15:59:41.123Z,2.47
2023-04-28T16:02:08.175Z,1.92
2023-04-28T16:04:34.995Z,2.70
2023-04-28T16:07:02.687Z,1.20
2023-04-28T16:09:29.844Z,1.63
2023-04-28T16:11:59.346Z,1.40
2023-04-28T16:14:26.973Z,1.40
2023-04-28T16:16:53.960Z,1.13
2023-04-28T16:19:21.622Z,1.60
2023-04-28T16:21:48.370Z,3.35
2023-04-28T16:24:14.913Z,8.20
2023-04-28T16:26:41.543Z,5.82
2023-04-28T16:29:08.172Z,1.88
2023-04-28T16:31:34.810Z,1.27
2023-04-28T16:34:01.321Z,2.90
2023-04-28T16:36:32.906Z,4.03
2023-04-28T16:38:59.615Z,1.75
2023-04-28T16:41:26.168Z,2.78
2023-04-28T16:43:52.953Z,2.95
2023-04-28T16:46:19.523Z,4.35
2023-04-28T16:48:46.166Z,2.92
2023-04-28T16:51:12.714Z,2.28
2023-04-28T16:53:39.281Z,3.10
2023-04-28T16:56:08.339Z,4.35
2023-04-28T16:58:36.635Z,11.70
2023-04-28T17:01:03.202Z,2.42
2023-04-28T17:03:29.907Z,4.18
2023-04-28T17:05:56.553Z,5.45
2023-04-28T17:08:23.143Z,2.70
2023-04-28T17:10:49.654Z,5.35
2023-04-28T17:13:16.245Z,2.80
2023-04-28T17:15:42.817Z,3.25
2023-04-28T17:18:09.443Z,2.45
2023-04-28T17:20:36.301Z,5.70
2023-04-28T17:23:03.509Z,6.38
2023-04-28T17:25:30.095Z,2.67
2023-04-28T17:27:56.801Z,5.82
2023-04-28T17:30:24.334Z,2.10
2023-04-28T17:32:51.174Z,2.90
2023-04-28T17:35:17.875Z,2.25
2023-04-28T17:37:44.442Z,4.10
2023-04-28T17:40:11.534Z,3.90
2023-04-28T17:42:38.217Z,3.80
2023-04-28T17:45:07.315Z,5.65
2023-04-28T17:47:34.174Z,5.82
2023-04-28T17:50:00.906Z,5.80
2023-04-28T17:52:27.580Z,11.93
2023-04-28T17:54:54.348Z,8.07
2023-04-28T17:57:21.346Z,6.45
2023-04-28T17:59:50.984Z,9.18
2023-04-28T18:02:18.819Z,7.82
2023-04-28T18:04:45.788Z,4.75
2023-04-28T18:07:12.337Z,6.25
2023-04-28T18:09:38.913Z,5.38
2023-04-28T18:12:06.910Z,3.78
2023-04-28T18:14:33.745Z,4.35
2023-04-28T18:17:00.550Z,4.50
2023-04-28T18:19:28.229Z,4.75
2023-04-28T18:21:56.758Z,4.72
2023-04-28T18:24:24.130Z,3.97
2023-04-28T18:26:50.710Z,5.22
2023-04-28T18:29:18.800Z,3.53
2023-04-28T18:31:46.180Z,4.55
2023-04-28T18:34:12.949Z,3.67
2023-04-28T18:36:39.512Z,3.75
2023-04-28T18:39:07.914Z,3.92
2023-04-28T18:41:35.754Z,4.03
2023-04-28T18:44:02.890Z,5.72
2023-04-28T18:46:29.703Z,3.92
2023-04-28T18:48:56.578Z,3.13
2023-04-28T18:51:23.141Z,4.53
2023-04-28T18:53:49.665Z,5.22
2023-04-28T18:56:16.650Z,3.88
2023-04-28T18:58:43.312Z,5.20
2023-04-28T19:01:17.256Z,4.70
2023-04-28T19:03:44.460Z,4.28
2023-04-28T19:06:11.806Z,4.57
2023-04-28T19:08:39.149Z,4.30
2023-04-28T19:11:09.443Z,4.55
2023-04-28T19:13:39.880Z,3.90
2023-04-28T19:16:06.529Z,4.15
2023-04-28T19:18:33.343Z,4.82
2023-04-28T19:21:00.741Z,3.00
2023-04-28T19:23:28.309Z,5.05
2023-04-28T19:25:56.903Z,3.08
2023-04-28T19:28:25.952Z,3.63
2023-04-28T19:30:53.992Z,11.50
2023-04-28T19:33:20.920Z,15.65
2023-04-28T19:35:47.538Z,14.68
2023-04-28T19:38:14.419Z,18.77
2023-04-28T19:40:41.001Z,18.98
2023-04-28T19:43:07.706Z,14.82
2023-04-28T19:45:35.097Z,15.15
2023-04-28T19:48:02.214Z,12.95
2023-04-28T19:50:28.837Z,14.88
2023-04-28T19:52:55.380Z,17.60
2023-04-28T19:55:23.264Z,15.52
2023-04-28T19:57:50.476Z,18.00
2023-04-28T20:00:17.037Z,15.07
2023-04-28T20:02:44.356Z,14.30
2023-04-28T20:05:11.073Z,11.10
2023-04-28T20:07:41.996Z,11.63
2023-04-28T20:10:09.353Z,10.27
2023-04-28T20:12:35.942Z,8.40
2023-04-28T20:15:02.454Z,11.18
2023-04-28T20:17:29.069Z,10.18
2023-04-28T20:19:55.609Z,8.85
2023-04-28T20:22:22.212Z,7.25
2023-04-28T20:24:48.896Z,10.13
2023-04-28T20:27:15.659Z,14.88
2023-04-28T20:29:42.538Z,10.27
2023-04-28T20:32:10.416Z,10.57
2023-04-28T20:34:37.171Z,10.65
2023-04-28T20:37:04.266Z,11.23
2023-04-28T20:39:30.825Z,8.00
2023-04-28T20:41:58.892Z,8.73
2023-04-28T20:44:25.726Z,9.18
2023-04-28T20:46:52.357Z,8.57
2023-04-28T20:49:19.498Z,10.02
2023-04-28T20:51:46.116Z,7.35
2023-04-28T20:54:12.821Z,13.15
2023-04-28T20:56:39.836Z,7.35
2023-04-28T20:59:06.357Z,6.35
2023-04-28T21:01:32.894Z,6.95
2023-04-28T21:03:59.596Z,5.88
2023-04-28T21:06:26.273Z,5.88
2023-04-28T21:08:52.961Z,6.07
2023-04-28T21:11:19.711Z,5.07
2023-04-28T21:13:46.285Z,5.05
2023-04-28T21:16:17.029Z,5.18
2023-04-28T21:18:46.893Z,6.57
2023-04-28T21:21:14.109Z,7.10
2023-04-28T21:23:40.652Z,7.35
2023-04-28T21:26:07.497Z,6.70
2023-04-28T21:28:35.781Z,6.65
2023-04-28T21:31:04.030Z,4.55
2023-04-28T21:33:31.189Z,4.70
2023-04-28T21:35:58.112Z,3.08
2023-04-28T21:38:25.850Z,4.63
2023-04-28T21:40:52.577Z,3.35
2023-04-28T21:43:19.934Z,4.35
2023-04-28T21:45:46.806Z,3.90
2023-04-28T21:48:13.553Z,4.95
2023-04-28T21:50:40.498Z,3.45
2023-04-28T21:53:06.985Z,6.68
2023-04-28T21:55:33.735Z,6.13
2023-04-28T21:58:00.544Z,7.05
2023-04-28T22:00:28.012Z,5.68
2023-04-28T22:02:57.290Z,6.47
2023-04-28T22:05:24.991Z,4.55
2023-04-28T22:07:51.956Z,6.50
2023-04-28T22:10:19.321Z,5.13
2023-04-28T22:12:46.415Z,12.93
2023-04-28T22:15:13.156Z,12.18
2023-04-28T22:17:40.281Z,8.80
2023-04-28T22:20:07.894Z,12.48
2023-04-28T22:22:34.454Z,9.82
2023-04-28T22:25:01.513Z,6.47
2023-04-28T22:27:28.164Z,8.60
2023-04-28T22:29:54.708Z,13.35
2023-04-28T22:32:21.310Z,7.57
2023-04-28T22:34:49.040Z,8.45
2023-04-28T22:37:15.536Z,7.95
2023-04-28T22:39:42.090Z,5.85
2023-04-28T22:42:08.604Z,7.53
2023-04-28T22:44:35.158Z,8.23
2023-04-28T22:47:01.757Z,7.72
2023-04-28T22:49:30.444Z,5.95
2023-04-28T22:51:58.034Z,6.53
2023-04-28T22:54:24.673Z,8.95
2023-04-28T22:56:53.327Z,8.45
2023-04-28T22:59:20.095Z,6.70
2023-04-28T23:04:13.409Z,8.35
2023-04-28T23:06:40.065Z,5.15
2023-04-28T23:09:07.128Z,7.05
2023-04-28T23:11:33.653Z,5.55
2023-04-28T23:14:00.246Z,5.28
2023-04-28T23:16:26.933Z,5.05
2023-04-28T23:18:53.546Z,5.68
2023-04-28T23:21:20.129Z,6.18
2023-04-28T23:23:46.658Z,4.68
2023-04-28T23:26:13.202Z,5.30
2023-04-28T23:28:39.751Z,15.35
2023-04-28T23:31:06.309Z,7.63
2023-04-28T23:33:32.863Z,15.18
2023-04-28T23:35:59.390Z,38.42
2023-04-28T23:38:26.580Z,15.82
2023-04-28T23:40:53.208Z,15.85
2023-04-28T23:43:19.707Z,12.55
2023-04-28T23:45:46.505Z,10.05
2023-04-28T23:48:13.168Z,7.60
2023-04-28T23:50:39.666Z,12.05
2023-04-28T23:53:06.281Z,18.73
2023-04-28T23:55:32.814Z,4.93
2023-04-28T23:57:59.447Z,5.47
